Terminal Aerodrome Forecast
Issued by NWS

Home | Current Version | Previous Version | Text Only | Print | Product List | Glossary On
Versions: 1 2 3 4 5 6 7 8 9 10 11 12 13 14 15 16 17 18 19
000
FTUS43 KAPX 020500
TAFPLN
TAF
KPLN 020520Z 0206/0306 27006KT P6SM FEW070
     FM020800 00000KT P6SM SKC
      TEMPO 0208/0211 5SM BR
     FM021500 27011KT P6SM FEW050 SCT220
     FM021900 25011KT P6SM SCT090 BKN180
     FM030000 24003KT P6SM SCT090=

USA.gov is the U.S. government's official web portal to all federal, state and local government web resources and services.